createdAt,value
2023-04-01T00:02:55.203Z,98770.69
2023-04-01T00:05:58.693Z,98779.72
2023-04-01T00:09:01.014Z,98765.81
2023-04-01T00:12:03.470Z,98763.66
2023-04-01T00:15:07.954Z,98761.75
2023-04-01T00:18:10.318Z,98749.53
2023-04-01T00:21:12.617Z,98764.75
2023-04-01T00:24:16.028Z,98755.69
2023-04-01T00:27:18.586Z,98767.94
2023-04-01T00:30:21.206Z,98764.19
2023-04-01T00:33:23.456Z,98777.59
2023-04-01T00:36:26.201Z,98767.72
2023-04-01T00:39:33.006Z,98767.72
2023-04-01T00:42:35.368Z,98759.38
2023-04-01T00:45:40.468Z,98753.00
2023-04-01T00:48:52.678Z,98756.22
2023-04-01T00:51:57.294Z,98742.34
2023-04-01T00:55:00.343Z,98754.09
2023-04-01T00:58:05.151Z,98751.38
2023-04-01T01:01:07.970Z,98748.72
2023-04-01T01:04:29.595Z,98742.00
2023-04-01T01:07:49.254Z,98750.28
2023-04-01T01:10:51.658Z,98744.72
2023-04-01T01:14:02.666Z,98747.91
2023-04-01T01:17:23.614Z,98763.19
2023-04-01T01:20:28.937Z,98762.78
2023-04-01T01:23:55.909Z,98763.13
2023-04-01T01:27:09.305Z,98756.75
2023-04-01T01:30:38.577Z,98746.59
2023-04-01T01:33:46.943Z,98744.78
2023-04-01T01:36:54.020Z,98751.91
2023-04-01T01:40:00.809Z,98750.09
2023-04-01T01:43:09.951Z,98744.47
2023-04-01T01:46:17.115Z,98742.41
2023-04-01T01:49:20.813Z,98731.72
2023-04-01T01:52:24.508Z,98737.53
2023-04-01T01:55:34.220Z,98751.16
2023-04-01T01:58:41.901Z,98740.97
2023-04-01T02:01:52.088Z,98740.78
2023-04-01T02:04:55.180Z,98738.34
2023-04-01T02:08:21.414Z,98740.78
2023-04-01T02:11:28.767Z,98737.34
2023-04-01T02:14:38.668Z,98749.06
2023-04-01T02:17:44.382Z,98729.06
2023-04-01T02:20:47.138Z,98722.69
2023-04-01T02:23:50.932Z,98728.00
2023-04-01T02:26:53.514Z,98721.88
2023-04-01T02:29:55.932Z,98721.31
2023-04-01T02:32:59.369Z,98718.34
2023-04-01T02:36:01.818Z,98728.00
2023-04-01T02:39:05.639Z,98720.00
2023-04-01T02:42:07.943Z,98713.59
2023-04-01T02:45:11.134Z,98727.75
2023-04-01T02:48:15.106Z,98717.59
2023-04-01T02:51:18.439Z,98713.06
2023-04-01T02:54:20.970Z,98722.59
2023-04-01T02:57:23.420Z,98720.25
2023-04-01T03:00:26.251Z,98725.88
2023-04-01T03:03:28.722Z,98723.72
2023-04-01T03:06:31.486Z,98721.88
2023-04-01T03:09:33.797Z,98718.44
2023-04-01T03:12:36.905Z,98727.72
2023-04-01T03:15:39.202Z,98728.00
2023-04-01T03:18:41.787Z,98713.31
2023-04-01T03:21:44.082Z,98713.03
2023-04-01T03:24:46.366Z,98709.31
2023-04-01T03:27:48.811Z,98713.31
2023-04-01T03:30:51.456Z,98717.03
2023-04-01T03:33:53.851Z,98723.69
2023-04-01T03:36:56.380Z,98739.41
2023-04-01T03:39:58.692Z,98744.25
2023-04-01T03:43:01.190Z,98742.06
2023-04-01T03:46:03.763Z,98751.91
2023-04-01T03:49:12.823Z,98753.22
2023-04-01T03:52:15.578Z,98747.16
2023-04-01T03:55:19.137Z,98741.78
2023-04-01T03:58:23.427Z,98735.38
2023-04-01T04:01:27.332Z,98758.63
2023-04-01T04:04:32.008Z,98755.13
2023-04-01T04:07:35.984Z,98759.19
2023-04-01T04:10:42.366Z,98764.25
2023-04-01T04:13:44.744Z,98749.00
2023-04-01T04:16:47.225Z,98748.72
2023-04-01T04:19:49.627Z,98756.75
2023-04-01T04:22:52.549Z,98756.13
2023-04-01T04:25:56.583Z,98751.66
2023-04-01T04:28:58.856Z,98746.59
2023-04-01T04:32:01.874Z,98739.63
2023-04-01T04:35:04.772Z,98746.06
2023-04-01T04:38:08.347Z,98751.03
2023-04-01T04:41:18.825Z,98738.00
2023-04-01T04:44:24.361Z,98736.44
2023-04-01T04:47:26.714Z,98735.09
2023-04-01T04:50:29.183Z,98750.34
2023-04-01T04:53:31.882Z,98743.44
2023-04-01T04:56:34.420Z,98741.00
2023-04-01T04:59:41.325Z,98737.25
2023-04-01T05:02:54.949Z,98745.53
2023-04-01T05:05:57.489Z,98748.50
2023-04-01T05:09:00.536Z,98741.78
2023-04-01T05:12:03.276Z,98742.88
2023-04-01T05:15:18.526Z,98747.69
2023-04-01T05:18:20.933Z,98742.06
2023-04-01T05:21:23.310Z,98755.97
2023-04-01T05:24:26.156Z,98747.69
2023-04-01T05:27:28.627Z,98753.00
2023-04-01T05:30:30.956Z,98758.88
2023-04-01T05:33:57.096Z,98761.81
2023-04-01T05:36:59.504Z,98757.53
2023-04-01T05:40:02.120Z,98770.66
2023-04-01T05:43:05.082Z,98770.44
2023-04-01T05:46:07.768Z,98761.91
2023-04-01T05:49:21.075Z,98742.69
2023-04-01T05:52:25.340Z,98747.00
2023-04-01T05:55:27.749Z,98748.38
2023-04-01T05:58:30.305Z,98748.38
2023-04-01T06:01:32.760Z,98756.94
2023-04-01T06:04:39.146Z,98760.69
2023-04-01T06:07:41.614Z,98752.66
2023-04-01T06:11:02.657Z,98760.69
2023-04-01T06:14:20.116Z,98758.25
2023-04-01T06:17:37.865Z,98744.66
2023-04-01T06:20:45.287Z,98751.59
2023-04-01T06:23:54.203Z,98744.63
2023-04-01T06:27:37.766Z,98753.69
2023-04-01T06:30:43.241Z,98751.53
2023-04-01T06:34:04.501Z,98754.75
2023-04-01T06:37:58.291Z,98753.41
2023-04-01T06:41:19.337Z,98771.81
2023-04-01T06:44:28.121Z,98766.72
2023-04-01T06:48:18.038Z,98756.00
2023-04-01T06:51:52.640Z,98772.28
2023-04-01T06:55:39.168Z,98765.13
2023-04-01T06:59:03.542Z,98758.13
2023-04-01T07:02:17.579Z,98760.66
2023-04-01T07:05:21.167Z,98748.34
2023-04-01T07:08:27.032Z,98759.69
2023-04-01T07:11:35.552Z,98760.34
2023-04-01T07:14:57.626Z,98745.88
2023-04-01T07:18:46.666Z,98758.28
2023-04-01T07:22:12.818Z,98754.63
2023-04-01T07:25:43.481Z,98755.47
2023-04-01T07:29:18.058Z,98753.03
2023-04-01T07:32:41.445Z,98759.28
2023-04-01T07:35:55.339Z,98755.72
2023-04-01T07:39:05.912Z,98760.69
2023-04-01T07:42:43.041Z,98767.97
2023-04-01T07:45:58.734Z,98751.38
2023-04-01T07:49:19.482Z,98753.69
2023-04-01T07:52:41.007Z,98751.75
2023-04-01T07:56:04.330Z,98751.34
2023-04-01T07:59:21.506Z,98764.97
2023-04-01T08:02:50.550Z,98753.22
2023-04-01T08:06:08.416Z,98754.78
2023-04-01T08:09:41.256Z,98761.56
2023-04-01T08:13:23.453Z,98748.97
2023-04-01T08:16:54.731Z,98761.22
2023-04-01T08:20:23.891Z,98760.34
2023-04-01T08:23:30.372Z,98757.75
2023-04-01T08:26:41.438Z,98766.53
2023-04-01T08:30:04.169Z,98764.41
2023-04-01T08:33:14.093Z,98768.97
2023-04-01T08:36:18.615Z,98755.75
2023-04-01T08:39:31.871Z,98765.34
2023-04-01T08:42:58.738Z,98765.16
2023-04-01T08:46:31.818Z,98760.63
2023-04-01T08:49:52.552Z,98756.97
2023-04-01T08:53:36.152Z,98756.56
2023-04-01T08:56:48.918Z,98753.00
2023-04-01T09:00:06.758Z,98751.63
2023-04-01T09:03:53.445Z,98759.41
2023-04-01T09:07:07.838Z,98752.22
2023-04-01T09:10:15.937Z,98756.41
2023-04-01T09:13:27.424Z,98756.25
2023-04-01T09:17:07.931Z,98758.19
2023-04-01T09:20:32.238Z,98756.41
2023-04-01T09:24:27.530Z,98765.59
2023-04-01T09:27:32.915Z,98766.41
2023-04-01T09:31:06.320Z,98753.97
2023-04-01T09:34:42.555Z,98750.78
2023-04-01T09:37:45.490Z,98751.88
2023-04-01T09:41:14.661Z,98751.78
2023-04-01T09:44:35.926Z,98740.34
2023-04-01T09:48:09.536Z,98758.28
2023-04-01T09:51:14.896Z,98758.78
2023-04-01T09:54:27.492Z,98751.53
2023-04-01T09:57:45.172Z,98766.06
2023-04-01T10:01:21.196Z,98770.97
2023-04-01T10:05:01.923Z,98769.50
2023-04-01T10:08:26.439Z,98778.09
2023-04-01T10:11:53.653Z,98778.00
2023-04-01T10:15:34.852Z,98773.25
2023-04-01T10:18:58.125Z,98778.97
2023-04-01T10:22:17.057Z,98784.16
2023-04-01T10:25:39.713Z,98788.28
2023-04-01T10:29:01.117Z,98769.91
2023-04-01T10:32:54.846Z,98774.00
2023-04-01T10:36:17.380Z,98783.44
2023-04-01T10:39:36.632Z,98788.91
2023-04-01T10:43:16.453Z,98787.25
2023-04-01T10:46:34.575Z,98789.22
2023-04-01T10:49:39.939Z,98793.44
2023-04-01T10:53:07.425Z,98788.69
2023-04-01T10:56:51.462Z,98789.22
2023-04-01T11:00:24.566Z,98775.03
2023-04-01T11:04:23.910Z,98777.50
2023-04-01T11:08:22.920Z,98780.44
2023-04-01T11:11:55.453Z,98777.31
2023-04-01T11:15:01.000Z,98778.34
2023-04-01T11:18:21.754Z,98764.13
2023-04-01T11:21:54.587Z,98769.16
2023-04-01T11:25:10.497Z,98765.38
2023-04-01T11:28:35.610Z,98765.97
2023-04-01T11:31:41.621Z,98777.84
2023-04-01T11:35:02.977Z,98770.59
2023-04-01T11:38:19.216Z,98767.97
2023-04-01T11:41:46.286Z,98765.47
2023-04-01T11:45:32.056Z,98764.38
2023-04-01T11:48:37.582Z,98774.28
2023-04-01T11:51:46.099Z,98776.00
2023-04-01T11:54:54.459Z,98786.13
2023-04-01T11:58:13.024Z,98794.94
2023-04-01T12:01:20.683Z,98786.00
2023-04-01T12:04:49.577Z,98789.75
2023-04-01T12:08:00.988Z,98788.41
2023-04-01T12:11:34.524Z,98783.63
2023-04-01T12:15:00.573Z,98790.22
2023-04-01T12:18:06.069Z,98789.09
2023-04-01T12:21:18.721Z,98781.44
2023-04-01T12:24:49.173Z,98781.75
2023-04-01T12:28:15.994Z,98779.06
2023-04-01T12:31:45.066Z,98786.41
2023-04-01T12:34:59.470Z,98771.81
2023-04-01T12:38:24.687Z,98771.00
2023-04-01T12:41:42.107Z,98773.34
2023-04-01T12:44:53.715Z,98779.88
2023-04-01T12:48:03.246Z,98775.66
2023-04-01T12:51:23.255Z,98773.47
2023-04-01T12:54:41.381Z,98760.41
2023-04-01T12:57:54.310Z,98773.06
2023-04-01T13:01:12.238Z,98768.63
2023-04-01T13:04:20.568Z,98762.66
2023-04-01T13:07:34.883Z,98759.84
2023-04-01T13:10:45.554Z,98763.25
2023-04-01T13:14:15.996Z,98750.47
2023-04-01T13:17:36.635Z,98758.34
2023-04-01T13:20:44.958Z,98754.59
2023-04-01T13:23:56.463Z,98751.47
2023-04-01T13:27:04.823Z,98756.34
2023-04-01T13:30:19.229Z,98753.84
2023-04-01T13:33:35.122Z,98746.69
2023-04-01T13:36:37.371Z,98755.94
2023-04-01T13:39:45.682Z,98755.34
2023-04-01T13:42:52.962Z,98760.94
2023-04-01T13:46:07.464Z,98756.88
2023-04-01T13:49:27.456Z,98759.38
2023-04-01T13:52:35.589Z,98756.50
2023-04-01T13:55:46.775Z,98756.75
2023-04-01T13:59:13.755Z,98761.53
2023-04-01T14:02:22.028Z,98767.13
2023-04-01T14:05:44.072Z,98759.59
2023-04-01T14:09:11.060Z,98762.13
2023-04-01T14:12:42.391Z,98761.88
2023-04-01T14:15:44.693Z,98769.81
2023-04-01T14:19:09.894Z,98773.09
2023-04-01T14:22:27.316Z,98769.09
2023-04-01T14:25:44.937Z,98770.81
2023-04-01T14:29:04.298Z,98774.09
2023-04-01T14:32:21.747Z,98767.47
2023-04-01T14:35:31.413Z,98782.19
2023-04-01T14:38:52.917Z,98775.09
2023-04-01T14:42:26.115Z,98776.25
2023-04-01T14:45:53.103Z,98779.16
2023-04-01T14:49:00.543Z,98779.16
2023-04-01T14:52:13.025Z,98772.09
2023-04-01T14:55:24.935Z,98778.50
2023-04-01T14:58:48.518Z,98761.44
2023-04-01T15:02:12.808Z,98769.41
2023-04-01T15:05:16.765Z,98770.09
2023-04-01T15:08:24.665Z,98758.53
2023-04-01T15:11:39.118Z,98766.81
2023-04-01T15:14:51.117Z,98757.72
2023-04-01T15:18:16.700Z,98770.09
2023-04-01T15:21:37.821Z,98774.50
2023-04-01T15:25:04.600Z,98768.47
2023-04-01T15:28:37.484Z,98779.56
2023-04-01T15:31:48.013Z,98793.06
2023-04-01T15:35:12.148Z,98785.03
2023-04-01T15:38:48.633Z,98788.00
2023-04-01T15:42:36.251Z,98786.69
2023-04-01T15:45:49.649Z,98783.94
2023-04-01T15:49:20.450Z,98789.69
2023-04-01T15:52:26.107Z,98798.97
2023-04-01T15:55:32.992Z,98796.78
2023-04-01T15:58:52.440Z,98796.19
2023-04-01T16:02:32.140Z,98795.91
2023-04-01T16:06:21.187Z,98797.06
2023-04-01T16:09:26.237Z,98800.28
2023-04-01T16:12:48.141Z,98798.53
2023-04-01T16:15:54.270Z,98800.75
2023-04-01T16:19:26.568Z,98796.50
2023-04-01T16:22:49.910Z,98799.94
2023-04-01T16:26:23.818Z,98805.19
2023-04-01T16:29:28.397Z,98812.09
2023-04-01T16:32:47.349Z,98804.91
2023-04-01T16:36:23.708Z,98809.84
2023-04-01T16:39:42.000Z,98813.59
2023-04-01T16:43:12.544Z,98809.84
2023-04-01T16:46:14.849Z,98815.13
2023-04-01T16:49:35.746Z,98825.06
2023-04-01T16:52:47.784Z,98816.59
2023-04-01T16:56:02.683Z,98826.75
2023-04-01T16:59:11.946Z,98824.91
2023-04-01T17:02:15.875Z,98831.66
2023-04-01T17:05:18.278Z,98818.25
2023-04-01T17:08:27.204Z,98835.22
2023-04-01T17:11:37.683Z,98830.31
2023-04-01T17:14:55.914Z,98851.50
2023-04-01T17:18:18.171Z,98845.69
2023-04-01T17:21:47.640Z,98850.66
2023-04-01T17:25:21.015Z,98850.69
2023-04-01T17:28:38.553Z,98865.66
2023-04-01T17:31:55.898Z,98862.00
2023-04-01T17:35:15.460Z,98861.25
2023-04-01T17:38:36.366Z,98853.66
2023-04-01T17:42:05.569Z,98877.59
2023-04-01T17:45:34.130Z,98873.00
2023-04-01T17:48:55.467Z,98863.19
2023-04-01T17:52:00.890Z,98880.03
2023-04-01T17:55:27.975Z,98882.78
2023-04-01T17:58:36.560Z,98873.25
2023-04-01T18:01:44.751Z,98881.63
2023-04-01T18:04:53.231Z,98885.66
2023-04-01T18:08:48.230Z,98892.16
2023-04-01T18:12:09.114Z,98885.06
2023-04-01T18:15:27.735Z,98898.19
2023-04-01T18:19:08.484Z,98895.88
2023-04-01T18:22:17.072Z,98911.38
2023-04-01T18:25:43.617Z,98909.84
2023-04-01T18:28:54.387Z,98910.34
2023-04-01T18:32:13.294Z,98919.69
2023-04-01T18:36:16.347Z,98909.78
2023-04-01T18:39:26.963Z,98926.13
2023-04-01T18:43:03.847Z,98928.03
2023-04-01T18:46:45.770Z,98925.59
2023-04-01T18:49:54.126Z,98933.13
2023-04-01T18:53:30.174Z,98936.59
2023-04-01T18:56:43.368Z,98938.75
2023-04-01T18:59:56.672Z,98945.19
2023-04-01T19:03:13.064Z,98937.41
2023-04-01T19:06:20.197Z,98945.16
2023-04-01T19:09:33.569Z,98950.50
2023-04-01T19:13:03.779Z,98947.88
2023-04-01T19:16:27.041Z,98942.28
2023-04-01T19:19:46.177Z,98949.56
2023-04-01T19:23:21.798Z,98949.84
2023-04-01T19:26:31.512Z,98949.63
2023-04-01T19:29:45.860Z,98952.84
2023-04-01T19:33:36.621Z,98956.88
2023-04-01T19:37:01.284Z,98964.09
2023-04-01T19:40:45.826Z,98960.91
2023-04-01T19:43:48.523Z,98968.97
2023-04-01T19:46:55.789Z,98965.78
2023-04-01T19:50:22.542Z,98974.84
2023-04-01T19:53:41.922Z,98967.38
2023-04-01T19:56:52.571Z,98975.66
2023-04-01T20:00:01.543Z,98970.06
2023-04-01T20:03:34.267Z,98973.28
2023-04-01T20:06:39.502Z,98970.88
2023-04-01T20:09:47.724Z,98981.56
2023-04-01T20:13:08.190Z,98988.00
2023-04-01T20:16:12.027Z,98986.66
2023-04-01T20:19:14.551Z,98981.56
2023-04-01T20:22:38.171Z,98990.13
2023-04-01T20:25:44.591Z,98984.25
2023-04-01T20:29:09.051Z,98976.75
2023-04-01T20:32:34.724Z,98989.84
2023-04-01T20:35:44.261Z,98980.25
2023-04-01T20:39:14.075Z,98986.13
2023-04-01T20:42:25.399Z,99000.56
2023-04-01T20:45:34.382Z,98987.22
2023-04-01T20:48:55.489Z,99001.63
2023-04-01T20:52:26.508Z,98997.59
2023-04-01T20:55:32.039Z,99004.25
2023-04-01T20:58:56.003Z,99004.25
2023-04-01T21:02:04.274Z,99003.19
2023-04-01T21:05:21.331Z,99011.75
2023-04-01T21:08:49.047Z,99016.00
2023-04-01T21:12:06.672Z,99024.53
2023-04-01T21:15:44.376Z,99005.75
2023-04-01T21:18:49.597Z,99027.69
2023-04-01T21:22:09.966Z,99030.31
2023-04-01T21:25:53.314Z,99028.75
2023-04-01T21:29:28.156Z,99024.97
2023-04-01T21:32:45.361Z,99029.28
2023-04-01T21:36:05.221Z,99026.38
2023-04-01T21:39:07.568Z,99027.97
2023-04-01T21:42:40.826Z,99026.34
2023-04-01T21:45:51.711Z,99039.97
2023-04-01T21:49:02.582Z,99031.91
2023-04-01T21:52:42.091Z,99039.59
2023-04-01T21:56:11.866Z,99032.13
2023-04-01T21:59:32.737Z,99033.44
2023-04-01T22:02:47.149Z,99048.06
2023-04-01T22:05:57.993Z,99037.16
2023-04-01T22:09:18.686Z,99033.66
2023-04-01T22:12:27.875Z,99041.44
2023-04-01T22:15:52.518Z,99038.84
2023-04-01T22:19:32.090Z,99045.22
2023-04-01T22:22:55.965Z,99050.06
2023-04-01T22:26:18.047Z,99043.66
2023-04-01T22:29:42.915Z,99050.41
2023-04-01T22:32:48.801Z,99055.47
2023-04-01T22:36:09.931Z,99045.34
2023-04-01T22:39:44.748Z,99058.69
2023-04-01T22:43:17.372Z,99053.38
2023-04-01T22:47:16.242Z,99062.72
2023-04-01T22:50:36.962Z,99065.38
2023-04-01T22:54:01.106Z,99082.25
2023-04-01T22:57:06.917Z,99076.88
2023-04-01T23:00:23.385Z,99080.41
2023-04-01T23:03:32.506Z,99086.03
2023-04-01T23:06:40.144Z,99086.56
2023-04-01T23:09:42.511Z,99078.44
2023-04-01T23:12:46.252Z,99081.34
2023-04-01T23:15:48.768Z,99080.59
2023-04-01T23:19:02.480Z,99090.16
2023-04-01T23:22:26.414Z,99097.31
2023-04-01T23:25:38.115Z,99089.81
2023-04-01T23:28:50.713Z,99109.63
2023-04-01T23:32:05.687Z,99092.41
2023-04-01T23:35:17.209Z,99107.00
2023-04-01T23:38:20.975Z,99098.75
2023-04-01T23:41:31.762Z,99105.66
2023-04-01T23:44:35.696Z,99086.81
2023-04-01T23:47:40.233Z,99095.94
2023-04-01T23:50:42.729Z,99107.28
2023-04-01T23:53:47.126Z,99102.31
2023-04-01T23:56:53.147Z,99123.09
